Time;durP1;ratioP1;P1;durP2;ratioP2;P2;SDS_P1;SDS_P2;PMS_P1;PMS_P2;Temp;Humidity;BMP_temperature;BMP_pressure;BME280_temperature;BME280_humidity;BME280_pressure;Samples;Min_cycle;Max_cycle;Signal;HPM_P1;HPM_P2
2022/10/27 00:01:33;;;;;;;8.68;2.17;;;;;;;;;;5001353;28;20121;-55
2022/10/27 00:03:58;;;;;;;5.63;2.10;;;;;;;;;;5005675;28;20116;-53
2022/10/27 00:06:24;;;;;;;6.95;2.10;;;;;;;;;;5007656;28;20030;-55
2022/10/27 00:08:50;;;;;;;5.53;2.20;;;;;;;;;;5007815;28;20408;-55
2022/10/27 00:11:15;;;;;;;6.15;2.30;;;;;;;;;;5008794;28;20038;-55
2022/10/27 00:13:41;;;;;;;7.03;2.35;;;;;;;;;;5011362;28;20030;-58
2022/10/27 00:16:11;;;;;;;5.65;2.40;;;;;;;;;;5001318;28;20119;-55
2022/10/27 00:18:36;;;;;;;5.22;2.08;;;;;;;;;;5011084;28;20482;-54
2022/10/27 00:21:06;;;;;;;6.95;2.22;;;;;;;;;;5003322;28;20037;-60
2022/10/27 00:23:32;;;;;;;6.65;1.95;;;;;;;;;;5009212;28;20556;-58
2022/10/27 00:25:58;;;;;;;5.88;2.42;;;;;;;;;;5012856;28;20046;-55
2022/10/27 00:28:24;;;;;;;7.35;2.65;;;;;;;;;;5013300;28;20034;-58
2022/10/27 00:31:04;;;;;;;7.13;2.67;;;;;;;;;;5013573;28;20055;-55
2022/10/27 00:33:30;;;;;;;5.88;1.95;;;;;;;;;;5013531;28;20037;-54
2022/10/27 00:35:56;;;;;;;6.75;2.10;;;;;;;;;;5013403;28;20437;-57
2022/10/27 00:38:22;;;;;;;4.30;1.90;;;;;;;;;;5013725;28;20034;-55
2022/10/27 00:40:48;;;;;;;6.70;2.30;;;;;;;;;;5013763;28;20045;-56
2022/10/27 00:43:36;;;;;;;6.75;1.92;;;;;;;;;;5013713;28;20041;-54
2022/10/27 00:46:30;;;;;;;7.85;2.25;;;;;;;;;;5013714;28;20042;-54
2022/10/27 00:49:08;;;;;;;6.07;1.95;;;;;;;;;;5011170;28;20045;-56
2022/10/27 00:51:35;;;;;;;7.57;2.08;;;;;;;;;;5012504;28;20038;-56
2022/10/27 00:54:01;;;;;;;6.45;2.40;;;;;;;;;;5012530;28;20038;-57
2022/10/27 00:56:27;;;;;;;5.47;1.92;;;;;;;;;;5002780;28;20053;-57
2022/10/27 00:58:52;;;;;;;4.75;2.13;;;;;;;;;;5011544;28;20029;-55
2022/10/27 01:01:18;;;;;;;5.32;1.92;;;;;;;;;;5015326;28;20041;-54
2022/10/27 01:03:44;;;;;;;6.07;2.20;;;;;;;;;;5013266;28;20125;-57
2022/10/27 01:06:10;;;;;;;6.10;1.88;;;;;;;;;;5013255;28;20026;-53
2022/10/27 01:08:36;;;;;;;5.22;1.92;;;;;;;;;;5013131;28;20057;-55
2022/10/27 01:11:01;;;;;;;6.15;2.20;;;;;;;;;;5018011;28;20500;-54
2022/10/27 01:13:27;;;;;;;6.22;1.90;;;;;;;;;;5019270;28;20038;-57
2022/10/27 01:16:24;;;;;;;5.28;1.80;;;;;;;;;;5022547;28;20436;-58
2022/10/27 01:19:06;;;;;;;6.72;1.95;;;;;;;;;;5016471;28;20088;-56
2022/10/27 01:21:53;;;;;;;4.75;2.00;;;;;;;;;;5012123;28;20081;-57
2022/10/27 01:24:55;;;;;;;5.28;1.98;;;;;;;;;;5021482;28;20046;-55
2022/10/27 01:27:29;;;;;;;4.93;1.90;;;;;;;;;;5013609;28;20038;-54
2022/10/27 01:30:07;;;;;;;6.35;2.00;;;;;;;;;;5020029;28;20096;-56
2022/10/27 01:32:43;;;;;;;5.15;1.75;;;;;;;;;;5030265;28;20046;-57
2022/10/27 01:35:18;;;;;;;6.05;1.70;;;;;;;;;;5020859;28;20497;-57
2022/10/27 01:38:18;;;;;;;5.20;2.03;;;;;;;;;;5008196;28;20050;-55
2022/10/27 01:40:55;;;;;;;4.45;1.67;;;;;;;;;;4994260;28;20099;-55
2022/10/27 01:43:23;;;;;;;4.53;1.83;;;;;;;;;;5016955;28;20045;-52
2022/10/27 01:45:49;;;;;;;5.65;1.80;;;;;;;;;;5020576;28;20117;-51
2022/10/27 01:48:15;;;;;;;6.47;2.03;;;;;;;;;;5014461;28;20033;-54
2022/10/27 01:50:41;;;;;;;4.35;1.60;;;;;;;;;;5027058;28;20038;-52
2022/10/27 01:53:09;;;;;;;3.95;1.83;;;;;;;;;;5005532;28;20046;-51
2022/10/27 01:55:39;;;;;;;3.78;1.52;;;;;;;;;;5016385;28;20030;-53
2022/10/27 01:58:08;;;;;;;7.15;2.28;;;;;;;;;;5016769;28;20137;-52
2022/10/27 02:00:57;;;;;;;5.22;1.80;;;;;;;;;;5019198;28;20038;-57
2022/10/27 02:03:27;;;;;;;4.85;2.03;;;;;;;;;;5015554;28;20434;-54
2022/10/27 02:06:30;;;;;;;5.57;1.83;;;;;;;;;;5025256;28;20394;-55
2022/10/27 02:09:09;;;;;;;5.47;1.65;;;;;;;;;;5016627;28;20046;-56
2022/10/27 02:11:36;;;;;;;5.88;2.13;;;;;;;;;;5021223;28;20385;-54
2022/10/27 02:14:02;;;;;;;5.93;2.00;;;;;;;;;;5015954;28;20061;-54
2022/10/27 02:16:29;;;;;;;3.72;1.55;;;;;;;;;;5023210;28;20073;-57
2022/10/27 02:19:06;;;;;;;4.65;1.70;;;;;;;;;;5000813;28;20034;-56
2022/10/27 02:21:33;;;;;;;4.47;1.80;;;;;;;;;;5020886;28;20069;-56
2022/10/27 02:23:58;;;;;;;9.02;1.92;;;;;;;;;;5014346;28;20034;-54
2022/10/27 02:26:32;;;;;;;4.60;1.77;;;;;;;;;;5041775;28;20499;-56
2022/10/27 02:29:03;;;;;;;4.68;1.63;;;;;;;;;;5014808;28;20038;-54
2022/10/27 02:31:34;;;;;;;4.53;1.80;;;;;;;;;;5018267;28;20034;-57
2022/10/27 02:34:01;;;;;;;4.57;1.80;;;;;;;;;;5008998;28;20040;-53
2022/10/27 02:36:26;;;;;;;4.25;1.40;;;;;;;;;;5020714;28;20026;-56
2022/10/27 02:38:51;;;;;;;3.78;1.73;;;;;;;;;;5015639;28;20053;-56
2022/10/27 02:41:17;;;;;;;4.53;1.65;;;;;;;;;;5022747;28;20045;-55
2022/10/27 02:43:42;;;;;;;4.25;1.50;;;;;;;;;;5005753;28;20030;-55
2022/10/27 02:46:08;;;;;;;4.03;1.70;;;;;;;;;;5018594;28;20467;-55
2022/10/27 02:48:33;;;;;;;3.95;1.45;;;;;;;;;;5015563;28;20042;-57
2022/10/27 02:50:59;;;;;;;4.65;1.80;;;;;;;;;;5014312;28;20473;-56
2022/10/27 02:53:24;;;;;;;5.05;1.73;;;;;;;;;;5005609;28;20026;-56
2022/10/27 02:55:49;;;;;;;5.80;1.90;;;;;;;;;;5021695;28;20037;-56
2022/10/27 02:58:15;;;;;;;4.18;1.63;;;;;;;;;;5011211;28;20442;-54
2022/10/27 03:00:40;;;;;;;4.47;1.70;;;;;;;;;;5019560;28;20047;-57
2022/10/27 03:03:06;;;;;;;5.00;1.40;;;;;;;;;;5023389;28;20052;-56
2022/10/27 03:05:31;;;;;;;4.32;1.65;;;;;;;;;;5012125;28;20030;-55
2022/10/27 03:07:56;;;;;;;4.30;1.52;;;;;;;;;;5015154;28;20053;-55
2022/10/27 03:10:22;;;;;;;3.78;1.40;;;;;;;;;;5023719;28;20034;-56
2022/10/27 03:12:47;;;;;;;3.72;1.52;;;;;;;;;;5011834;28;20085;-56
2022/10/27 03:15:14;;;;;;;4.85;1.70;;;;;;;;;;5015112;28;20052;-55
2022/10/27 03:17:44;;;;;;;6.25;1.92;;;;;;;;;;5022008;28;20053;-53
2022/10/27 03:20:10;;;;;;;4.93;1.58;;;;;;;;;;5009634;28;20355;-55
2022/10/27 03:22:36;;;;;;;3.38;1.50;;;;;;;;;;5013127;28;20037;-57
2022/10/27 03:25:02;;;;;;;3.70;1.40;;;;;;;;;;5016044;28;20042;-54
2022/10/27 03:27:27;;;;;;;6.72;2.20;;;;;;;;;;5011574;28;20026;-57
2022/10/27 03:29:53;;;;;;;4.22;1.65;;;;;;;;;;5012537;28;20112;-55
2022/10/27 03:32:18;;;;;;;3.92;1.42;;;;;;;;;;5026566;28;20042;-55
2022/10/27 03:34:43;;;;;;;4.88;1.67;;;;;;;;;;5012508;28;20029;-55
2022/10/27 03:37:09;;;;;;;4.32;1.55;;;;;;;;;;5005396;28;20038;-56
2022/10/27 03:39:34;;;;;;;3.33;1.48;;;;;;;;;;5005122;28;20485;-54
2022/10/27 03:41:59;;;;;;;4.18;1.40;;;;;;;;;;5017329;28;20040;-56
2022/10/27 03:44:25;;;;;;;3.00;1.23;;;;;;;;;;5019852;28;20053;-55
2022/10/27 03:46:50;;;;;;;4.18;1.73;;;;;;;;;;5015179;28;20397;-55
2022/10/27 03:49:16;;;;;;;4.65;1.70;;;;;;;;;;5014635;28;20037;-56
2022/10/27 03:51:41;;;;;;;4.18;1.67;;;;;;;;;;5014589;28;20034;-58
2022/10/27 03:54:06;;;;;;;3.35;1.45;;;;;;;;;;5017031;28;20489;-55
2022/10/27 03:56:32;;;;;;;3.08;1.50;;;;;;;;;;5018661;28;20030;-54
2022/10/27 03:58:57;;;;;;;3.72;1.40;;;;;;;;;;5014497;28;20474;-58
2022/10/27 04:01:22;;;;;;;3.13;1.27;;;;;;;;;;5015244;28;20042;-55
2022/10/27 04:03:48;;;;;;;4.05;1.38;;;;;;;;;;5010875;28;20034;-56
2022/10/27 04:06:13;;;;;;;3.55;1.60;;;;;;;;;;5012633;28;20026;-54
2022/10/27 04:08:39;;;;;;;3.83;1.42;;;;;;;;;;5013453;28;20046;-54
2022/10/27 04:11:04;;;;;;;3.85;1.63;;;;;;;;;;5020505;28;20070;-54
2022/10/27 04:13:29;;;;;;;4.85;1.58;;;;;;;;;;5014181;28;20037;-54
2022/10/27 04:15:58;;;;;;;4.55;1.60;;;;;;;;;;5021941;28;20042;-54
2022/10/27 04:18:23;;;;;;;2.45;1.10;;;;;;;;;;5014332;28;20056;-55
2022/10/27 04:20:49;;;;;;;3.72;1.30;;;;;;;;;;5017713;28;20473;-53
2022/10/27 04:23:14;;;;;;;4.70;1.52;;;;;;;;;;5014069;28;20033;-55
2022/10/27 04:25:40;;;;;;;4.00;1.60;;;;;;;;;;5019452;28;20034;-56
2022/10/27 04:28:06;;;;;;;3.70;1.23;;;;;;;;;;5014138;28;20465;-55
2022/10/27 04:30:32;;;;;;;3.10;1.33;;;;;;;;;;5019974;28;20042;-54
2022/10/27 04:32:57;;;;;;;3.72;1.48;;;;;;;;;;5011267;28;20076;-55
2022/10/27 04:35:23;;;;;;;3.05;1.30;;;;;;;;;;5016046;28;20037;-54
2022/10/27 04:37:48;;;;;;;3.50;1.48;;;;;;;;;;5009422;28;20037;-57
2022/10/27 04:40:14;;;;;;;4.32;1.50;;;;;;;;;;5016892;28;20033;-55
2022/10/27 04:42:46;;;;;;;3.70;1.42;;;;;;;;;;5020204;28;20095;-55
2022/10/27 04:45:12;;;;;;;2.55;1.15;;;;;;;;;;5012529;28;20045;-56
2022/10/27 04:47:37;;;;;;;3.15;1.30;;;;;;;;;;5018707;28;20067;-55
2022/10/27 04:50:03;;;;;;;3.20;1.35;;;;;;;;;;5017436;28;20038;-54
2022/10/27 04:52:28;;;;;;;3.38;1.40;;;;;;;;;;5013670;28;20064;-57
2022/10/27 04:54:54;;;;;;;3.10;1.30;;;;;;;;;;5010683;28;20509;-55
2022/10/27 04:57:19;;;;;;;2.78;1.30;;;;;;;;;;5013403;28;20073;-56
2022/10/27 04:59:45;;;;;;;3.75;1.52;;;;;;;;;;5013047;28;20056;-57
2022/10/27 05:02:10;;;;;;;2.92;1.27;;;;;;;;;;5011994;28;20038;-56
2022/10/27 05:04:35;;;;;;;2.40;1.05;;;;;;;;;;5019109;28;20099;-55
2022/10/27 05:07:01;;;;;;;4.00;1.50;;;;;;;;;;5000695;28;20038;-56
2022/10/27 05:09:27;;;;;;;3.22;1.20;;;;;;;;;;5004788;28;20046;-56
2022/10/27 05:11:52;;;;;;;4.63;1.50;;;;;;;;;;5001534;28;20053;-57
2022/10/27 05:14:18;;;;;;;2.40;1.10;;;;;;;;;;5003705;28;20030;-55
2022/10/27 05:16:43;;;;;;;2.35;1.10;;;;;;;;;;5023690;28;20033;-55
2022/10/27 05:19:09;;;;;;;2.85;1.25;;;;;;;;;;5012346;28;20121;-54
2022/10/27 05:21:34;;;;;;;3.00;1.08;;;;;;;;;;5014025;28;20038;-55
2022/10/27 05:23:59;;;;;;;3.33;1.33;;;;;;;;;;5016427;28;20037;-56
2022/10/27 05:26:25;;;;;;;3.25;1.13;;;;;;;;;;5024707;28;20081;-53
2022/10/27 05:28:50;;;;;;;4.75;1.50;;;;;;;;;;5007219;28;20049;-56
2022/10/27 05:31:16;;;;;;;3.50;1.30;;;;;;;;;;5010847;28;20128;-56
2022/10/27 05:33:41;;;;;;;3.28;1.33;;;;;;;;;;5007903;28;20092;-58
2022/10/27 05:36:07;;;;;;;3.72;1.38;;;;;;;;;;5018707;28;20070;-55
2022/10/27 05:38:32;;;;;;;3.05;1.27;;;;;;;;;;5013062;28;20030;-56
2022/10/27 05:40:58;;;;;;;3.70;1.23;;;;;;;;;;5008768;28;20073;-55
2022/10/27 05:43:24;;;;;;;3.83;1.20;;;;;;;;;;5012920;28;20401;-56
2022/10/27 05:45:50;;;;;;;3.38;1.30;;;;;;;;;;5019075;28;20042;-55
2022/10/27 05:48:15;;;;;;;2.80;1.30;;;;;;;;;;5012798;28;20560;-57
2022/10/27 05:50:41;;;;;;;2.58;1.30;;;;;;;;;;5014184;28;20038;-56
2022/10/27 05:53:06;;;;;;;2.65;1.20;;;;;;;;;;5012729;28;20030;-56
2022/10/27 05:55:33;;;;;;;3.20;1.10;;;;;;;;;;5012593;28;20128;-57
2022/10/27 05:58:00;;;;;;;2.67;1.20;;;;;;;;;;5013803;28;20046;-55
2022/10/27 06:00:31;;;;;;;3.03;1.13;;;;;;;;;;5021492;28;20113;-55
2022/10/27 06:03:01;;;;;;;3.15;1.17;;;;;;;;;;5019429;28;20042;-55
2022/10/27 06:05:28;;;;;;;3.45;1.27;;;;;;;;;;5021062;28;20072;-54
2022/10/27 06:07:54;;;;;;;3.75;1.10;;;;;;;;;;5007271;28;20537;-55
2022/10/27 06:10:20;;;;;;;3.00;1.40;;;;;;;;;;5016904;28;20090;-55
2022/10/27 06:12:45;;;;;;;3.00;1.10;;;;;;;;;;5011498;28;20117;-57
2022/10/27 06:15:10;;;;;;;2.95;1.27;;;;;;;;;;5013211;28;20044;-57
2022/10/27 06:17:36;;;;;;;3.20;1.30;;;;;;;;;;5019795;28;20384;-54
2022/10/27 06:20:02;;;;;;;2.25;1.05;;;;;;;;;;5014741;28;20469;-53
2022/10/27 06:22:27;;;;;;;3.38;1.20;;;;;;;;;;5015322;28;20045;-56
2022/10/27 06:24:53;;;;;;;3.17;1.02;;;;;;;;;;5017408;28;20128;-59
2022/10/27 06:27:18;;;;;;;2.50;1.10;;;;;;;;;;5026848;28;20049;-54
2022/10/27 06:29:43;;;;;;;2.65;1.20;;;;;;;;;;5027807;28;20061;-56
2022/10/27 06:32:09;;;;;;;2.80;1.50;;;;;;;;;;5019390;28;20026;-52
2022/10/27 06:34:34;;;;;;;3.10;1.17;;;;;;;;;;5010218;28;20515;-55
2022/10/27 06:37:02;;;;;;;2.35;1.00;;;;;;;;;;5012784;28;20045;-54
2022/10/27 06:39:28;;;;;;;3.55;1.20;;;;;;;;;;5014603;28;20487;-54
2022/10/27 06:41:55;;;;;;;5.32;1.30;;;;;;;;;;5008409;28;20074;-56
2022/10/27 06:44:20;;;;;;;2.35;1.00;;;;;;;;;;5013252;28;20042;-56
2022/10/27 06:46:46;;;;;;;2.80;1.10;;;;;;;;;;5006170;28;20030;-52
2022/10/27 06:49:11;;;;;;;3.38;1.42;;;;;;;;;;5007495;28;20038;-56
2022/10/27 06:51:36;;;;;;;10.70;1.05;;;;;;;;;;4998408;28;20062;-53
2022/10/27 06:54:02;;;;;;;2.70;1.10;;;;;;;;;;5008000;28;20177;-54
2022/10/27 06:56:27;;;;;;;2.95;1.20;;;;;;;;;;5014256;28;20038;-64
2022/10/27 06:58:52;;;;;;;2.50;1.17;;;;;;;;;;5018937;28;20029;-58
2022/10/27 07:01:18;;;;;;;2.38;1.25;;;;;;;;;;5015184;28;20421;-62
2022/10/27 07:03:43;;;;;;;3.10;0.95;;;;;;;;;;5014795;28;20132;-58
2022/10/27 07:06:08;;;;;;;6.55;0.93;;;;;;;;;;5015468;28;20064;-56
2022/10/27 07:08:34;;;;;;;3.42;1.13;;;;;;;;;;5013650;28;20050;-57
2022/10/27 07:10:59;;;;;;;2.20;0.90;;;;;;;;;;5004011;28;20133;-57
2022/10/27 07:13:25;;;;;;;3.72;1.10;;;;;;;;;;5005586;28;20041;-52
2022/10/27 07:15:50;;;;;;;2.80;1.30;;;;;;;;;;5015235;28;20033;-54
2022/10/27 07:18:16;;;;;;;3.50;1.23;;;;;;;;;;5014970;28;20478;-50
2022/10/27 07:20:44;;;;;;;2.85;1.13;;;;;;;;;;5013368;28;20046;-53
2022/10/27 07:23:10;;;;;;;2.00;1.02;;;;;;;;;;5013793;28;20363;-50
2022/10/27 07:25:36;;;;;;;2.78;1.35;;;;;;;;;;5011956;28;20561;-62
2022/10/27 07:28:03;;;;;;;2.28;0.90;;;;;;;;;;5005419;28;20060;-53
2022/10/27 07:30:30;;;;;;;2.88;1.00;;;;;;;;;;5005022;28;20030;-54
2022/10/27 07:32:57;;;;;;;2.72;1.00;;;;;;;;;;5011300;28;20092;-51
2022/10/27 07:35:23;;;;;;;2.63;1.15;;;;;;;;;;5010687;28;20030;-52
2022/10/27 07:37:48;;;;;;;1.65;0.90;;;;;;;;;;5007723;28;20450;-50
2022/10/27 07:40:16;;;;;;;2.63;1.00;;;;;;;;;;5010088;28;20072;-56
2022/10/27 07:42:49;;;;;;;2.58;1.15;;;;;;;;;;5007061;28;20050;-55
2022/10/27 07:45:18;;;;;;;2.20;1.00;;;;;;;;;;5027148;28;20030;-54
2022/10/27 07:47:44;;;;;;;2.40;1.00;;;;;;;;;;5007494;28;20033;-52
2022/10/27 07:50:10;;;;;;;2.50;1.20;;;;;;;;;;5012047;28;20084;-55
2022/10/27 07:52:49;;;;;;;2.28;1.15;;;;;;;;;;5010203;28;20513;-53
2022/10/27 07:55:16;;;;;;;2.50;1.20;;;;;;;;;;5009388;28;20072;-53
2022/10/27 07:57:42;;;;;;;1.98;0.95;;;;;;;;;;5010947;28;20038;-53
2022/10/27 08:00:10;;;;;;;3.03;1.08;;;;;;;;;;5005819;28;20042;-53
2022/10/27 08:02:35;;;;;;;2.05;0.80;;;;;;;;;;5009203;28;20034;-56
2022/10/27 08:05:00;;;;;;;5.47;0.90;;;;;;;;;;5009886;28;20044;-55
2022/10/27 08:07:26;;;;;;;1.98;0.93;;;;;;;;;;5011785;28;20461;-58
2022/10/27 08:09:51;;;;;;;2.80;0.95;;;;;;;;;;5009703;28;20226;-51
2022/10/27 08:12:17;;;;;;;2.28;1.00;;;;;;;;;;5008092;28;20057;-52
2022/10/27 08:14:42;;;;;;;3.78;0.93;;;;;;;;;;5009750;28;20069;-50
2022/10/27 08:17:08;;;;;;;8.48;1.20;;;;;;;;;;5011311;28;20092;-50
2022/10/27 08:19:33;;;;;;;6.13;1.27;;;;;;;;;;5012339;28;20113;-51
2022/10/27 08:21:58;;;;;;;3.72;1.13;;;;;;;;;;5010926;28;20038;-54
2022/10/27 08:24:24;;;;;;;3.38;1.00;;;;;;;;;;5009903;28;20458;-51
2022/10/27 08:26:49;;;;;;;5.38;0.90;;;;;;;;;;5000292;28;20585;-55
2022/10/27 08:29:15;;;;;;;9.18;1.20;;;;;;;;;;5003108;28;20116;-51
2022/10/27 08:31:40;;;;;;;25.63;1.85;;;;;;;;;;5008440;28;20056;-53
2022/10/27 08:34:06;;;;;;;5.75;1.40;;;;;;;;;;5005274;28;20113;-53
2022/10/27 08:36:37;;;;;;;6.13;2.05;;;;;;;;;;5000181;28;20069;-55
2022/10/27 08:39:04;;;;;;;5.30;1.05;;;;;;;;;;5006020;28;20037;-60
2022/10/27 08:41:35;;;;;;;4.40;0.90;;;;;;;;;;5000088;28;20568;-57
2022/10/27 08:44:21;;;;;;;6.18;1.65;;;;;;;;;;4996026;28;20045;-58
2022/10/27 08:46:52;;;;;;;5.38;1.17;;;;;;;;;;4997056;28;20043;-56
2022/10/27 08:49:28;;;;;;;5.55;1.10;;;;;;;;;;5008245;28;20053;-55
2022/10/27 08:52:02;;;;;;;5.75;1.17;;;;;;;;;;5010172;28;20049;-59
2022/10/27 08:54:28;;;;;;;5.43;1.10;;;;;;;;;;5005886;28;20038;-60
2022/10/27 08:56:56;;;;;;;5.50;1.00;;;;;;;;;;5008945;28;20096;-51
2022/10/27 08:59:23;;;;;;;3.92;1.27;;;;;;;;;;5004840;28;20052;-58
2022/10/27 09:01:49;;;;;;;2.95;1.10;;;;;;;;;;5007672;28;20030;-58
2022/10/27 09:04:43;;;;;;;3.88;1.15;;;;;;;;;;4994535;28;20500;-57
2022/10/27 09:07:18;;;;;;;5.53;1.73;;;;;;;;;;4982900;28;20560;-57
2022/10/27 09:09:49;;;;;;;4.40;1.27;;;;;;;;;;5008141;28;20053;-56
2022/10/27 09:12:42;;;;;;;8.85;1.42;;;;;;;;;;5008294;28;20045;-55
2022/10/27 09:15:27;;;;;;;4.50;1.13;;;;;;;;;;5004655;28;20080;-56
2022/10/27 09:18:16;;;;;;;3.60;0.93;;;;;;;;;;5008318;28;20049;-55
2022/10/27 09:20:51;;;;;;;3.15;1.45;;;;;;;;;;5009148;28;20041;-57
2022/10/27 09:23:19;;;;;;;1.98;0.82;;;;;;;;;;5008762;28;20486;-57
2022/10/27 09:25:47;;;;;;;6.75;1.67;;;;;;;;;;5009621;28;20072;-56
2022/10/27 09:28:28;;;;;;;5.05;1.30;;;;;;;;;;5000765;28;20054;-55
2022/10/27 09:31:00;;;;;;;2.78;1.08;;;;;;;;;;5007274;28;20116;-54
2022/10/27 09:33:36;;;;;;;6.50;1.30;;;;;;;;;;4998997;28;20157;-58
2022/10/27 09:36:12;;;;;;;3.22;1.30;;;;;;;;;;5012586;28;20100;-52
2022/10/27 09:38:37;;;;;;;2.88;1.13;;;;;;;;;;5012394;28;20062;-56
2022/10/27 09:41:03;;;;;;;5.65;1.27;;;;;;;;;;5011312;28;20085;-50
2022/10/27 09:43:29;;;;;;;6.82;1.50;;;;;;;;;;5008500;28;20037;-53
2022/10/27 09:46:04;;;;;;;3.30;1.17;;;;;;;;;;5013188;28;20125;-52
2022/10/27 09:48:30;;;;;;;10.20;1.50;;;;;;;;;;5013756;28;20117;-53
2022/10/27 09:51:11;;;;;;;6.22;1.00;;;;;;;;;;5012434;28;20409;-54
2022/10/27 09:53:49;;;;;;;4.97;1.30;;;;;;;;;;5014305;28;20041;-55
2022/10/27 09:56:35;;;;;;;6.97;1.40;;;;;;;;;;5011777;28;20128;-55
2022/10/27 09:59:02;;;;;;;5.18;1.30;;;;;;;;;;5010389;28;20092;-53
2022/10/27 10:01:47;;;;;;;5.70;1.27;;;;;;;;;;5010791;28;20052;-54
2022/10/27 10:04:21;;;;;;;3.28;1.25;;;;;;;;;;4999827;28;20044;-53
2022/10/27 10:06:55;;;;;;;5.25;1.35;;;;;;;;;;5011986;28;20126;-50
2022/10/27 10:09:25;;;;;;;;;;;;;;;;;;5012525;28;20060;-57
2022/10/27 10:11:50;;;;;;;2.53;1.20;;;;;;;;;;5012428;28;20044;-60
2022/10/27 10:14:24;;;;;;;2.42;1.10;;;;;;;;;;5011071;28;20104;-61
2022/10/27 10:16:51;;;;;;;2.33;1.27;;;;;;;;;;5007882;28;20037;-50
2022/10/27 10:19:23;;;;;;;2.78;1.17;;;;;;;;;;5010946;28;20125;-52
2022/10/27 10:21:53;;;;;;;4.18;1.20;;;;;;;;;;5008785;28;20042;-54
2022/10/27 10:24:32;;;;;;;4.45;1.20;;;;;;;;;;5000813;28;20217;-55
2022/10/27 10:26:59;;;;;;;6.53;1.35;;;;;;;;;;5002351;28;20128;-54
2022/10/27 10:29:44;;;;;;;4.65;1.05;;;;;;;;;;5011076;28;20050;-50
2022/10/27 10:32:18;;;;;;;2.00;1.10;;;;;;;;;;4998396;28;20052;-58
2022/10/27 10:34:44;;;;;;;3.28;1.00;;;;;;;;;;5006727;28;20038;-52
2022/10/27 10:37:30;;;;;;;5.90;1.10;;;;;;;;;;5011154;28;20034;-50
2022/10/27 10:40:15;;;;;;;2.20;0.98;;;;;;;;;;5012214;28;20085;-50
2022/10/27 10:42:51;;;;;;;4.45;1.10;;;;;;;;;;5004145;28;20397;-48
2022/10/27 10:45:23;;;;;;;5.90;1.30;;;;;;;;;;5022714;28;20089;-48
2022/10/27 10:47:56;;;;;;;6.32;1.17;;;;;;;;;;5006478;28;20037;-48
2022/10/27 10:50:22;;;;;;;4.07;1.13;;;;;;;;;;5009844;28;20083;-49
2022/10/27 10:52:55;;;;;;;20.02;1.70;;;;;;;;;;5012521;28;20058;-48
2022/10/27 10:55:27;;;;;;;4.25;1.27;;;;;;;;;;4999890;28;20061;-48
2022/10/27 10:57:54;;;;;;;1.90;0.85;;;;;;;;;;4998514;28;20042;-49
2022/10/27 11:00:20;;;;;;;4.15;1.20;;;;;;;;;;4992679;28;20076;-48
2022/10/27 11:03:14;;;;;;;2.60;1.13;;;;;;;;;;5010384;28;20061;-48
2022/10/27 11:05:39;;;;;;;2.13;1.10;;;;;;;;;;5010087;28;20072;-50
2022/10/27 11:08:05;;;;;;;3.42;1.20;;;;;;;;;;5011124;28;20073;-48
2022/10/27 11:10:38;;;;;;;3.85;1.17;;;;;;;;;;4996474;28;20618;-47
2022/10/27 11:13:15;;;;;;;3.90;1.15;;;;;;;;;;5010014;28;20417;-49
2022/10/27 11:15:53;;;;;;;2.20;0.98;;;;;;;;;;4998156;28;20557;-50
2022/10/27 11:18:23;;;;;;;4.15;1.08;;;;;;;;;;4995080;28;20045;-50
2022/10/27 11:20:53;;;;;;;3.85;1.08;;;;;;;;;;5010215;28;20100;-48
2022/10/27 11:23:54;;;;;;;2.10;1.05;;;;;;;;;;5009638;28;20413;-47
2022/10/27 11:26:27;;;;;;;2.65;1.10;;;;;;;;;;5009366;28;20060;-51
2022/10/27 11:29:18;;;;;;;2.63;1.13;;;;;;;;;;5003833;28;20034;-49
2022/10/27 11:32:13;;;;;;;6.05;1.20;;;;;;;;;;5011495;28;20163;-50
2022/10/27 11:35:02;;;;;;;4.10;0.90;;;;;;;;;;5002472;28;20057;-58
2022/10/27 11:37:33;;;;;;;2.55;0.90;;;;;;;;;;4991850;28;20084;-49
2022/10/27 11:40:23;;;;;;;3.92;0.90;;;;;;;;;;5001477;28;20785;-52
2022/10/27 11:43:14;;;;;;;5.90;1.27;;;;;;;;;;4998395;28;20137;-50
2022/10/27 11:45:48;;;;;;;8.40;1.23;;;;;;;;;;4984337;28;20117;-50
2022/10/27 11:48:48;;;;;;;3.83;1.10;;;;;;;;;;4999354;28;20038;-48
2022/10/27 11:51:26;;;;;;;5.97;1.10;;;;;;;;;;5010887;28;20088;-57
2022/10/27 11:53:52;;;;;;;3.15;1.00;;;;;;;;;;5023782;28;20101;-59
2022/10/27 11:56:35;;;;;;;4.78;1.40;;;;;;;;;;5025323;28;20037;-49
2022/10/27 11:59:10;;;;;;;6.30;0.95;;;;;;;;;;5012131;28;20038;-48
2022/10/27 12:01:55;;;;;;;6.63;1.20;;;;;;;;;;5013026;28;20065;-49
2022/10/27 12:04:33;;;;;;;3.20;1.00;;;;;;;;;;5012944;28;20038;-49
2022/10/27 12:07:17;;;;;;;6.85;1.35;;;;;;;;;;5009711;28;20108;-50
2022/10/27 12:10:00;;;;;;;3.42;0.95;;;;;;;;;;4998255;28;20405;-52
2022/10/27 12:12:33;;;;;;;;;;;;;;;;;;5033184;28;20390;-50
2022/10/27 12:15:07;;;;;;;5.55;1.30;;;;;;;;;;5014752;28;19925;-48
2022/10/27 12:17:42;;;;;;;3.63;1.05;;;;;;;;;;5015879;28;20044;-50
2022/10/27 12:20:12;;;;;;;1.92;0.93;;;;;;;;;;5012488;28;20073;-50
2022/10/27 12:23:05;;;;;;;5.22;1.15;;;;;;;;;;5009937;28;20052;-48
2022/10/27 12:25:40;;;;;;;2.03;1.00;;;;;;;;;;5024891;28;20413;-51
2022/10/27 12:28:08;;;;;;;2.90;0.93;;;;;;;;;;5013635;28;20046;-52
2022/10/27 12:30:36;;;;;;;5.22;1.10;;;;;;;;;;5024997;28;20052;-50
2022/10/27 12:33:17;;;;;;;7.75;1.10;;;;;;;;;;5013080;28;20038;-48
2022/10/27 12:35:57;;;;;;;2.88;1.00;;;;;;;;;;5010891;28;20050;-50
2022/10/27 12:38:28;;;;;;;2.72;1.10;;;;;;;;;;5029877;28;20046;-48
2022/10/27 12:41:05;;;;;;;3.25;1.00;;;;;;;;;;5013566;28;20038;-48
2022/10/27 12:43:56;;;;;;;1.52;0.80;;;;;;;;;;5008902;28;20038;-50
2022/10/27 12:46:25;;;;;;;2.20;0.80;;;;;;;;;;5007999;28;20055;-49
2022/10/27 12:48:56;;;;;;;3.80;1.30;;;;;;;;;;5017923;28;20041;-49
2022/10/27 12:51:32;;;;;;;3.13;1.10;;;;;;;;;;5014477;28;20036;-50
2022/10/27 12:54:18;;;;;;;5.07;1.08;;;;;;;;;;5011482;28;20511;-49
2022/10/27 12:57:04;;;;;;;2.83;1.05;;;;;;;;;;5011715;28;20126;-49
2022/10/27 12:59:40;;;;;;;2.75;0.90;;;;;;;;;;5005495;28;20381;-51
2022/10/27 13:02:10;;;;;;;1.75;0.90;;;;;;;;;;5018854;28;20038;-47
2022/10/27 13:05:13;;;;;;;1.40;0.82;;;;;;;;;;5002862;28;20077;-49
2022/10/27 13:08:08;;;;;;;3.67;1.08;;;;;;;;;;4990690;28;20046;-49
2022/10/27 13:11:04;;;;;;;3.78;1.08;;;;;;;;;;5000635;28;20053;-49
2022/10/27 13:13:48;;;;;;;6.35;0.90;;;;;;;;;;5002226;28;20049;-50
2022/10/27 13:16:23;;;;;;;3.83;0.80;;;;;;;;;;5002725;28;20049;-59
2022/10/27 13:19:07;;;;;;;8.35;1.23;;;;;;;;;;5011756;28;20050;-48
2022/10/27 13:21:39;;;;;;;2.33;1.00;;;;;;;;;;5014234;28;20041;-49
2022/10/27 13:24:14;;;;;;;3.05;0.93;;;;;;;;;;5012745;28;20037;-48
2022/10/27 13:27:02;;;;;;;3.42;1.05;;;;;;;;;;5016674;28;20064;-48
2022/10/27 13:30:00;;;;;;;3.35;1.25;;;;;;;;;;5012587;28;20045;-47
2022/10/27 13:32:37;;;;;;;2.28;1.10;;;;;;;;;;5010638;28;20030;-47
2022/10/27 13:35:03;;;;;;;8.77;1.02;;;;;;;;;;5012270;28;20077;-46
2022/10/27 13:37:58;;;;;;;2.80;1.00;;;;;;;;;;5008971;28;20070;-48
2022/10/27 13:40:28;;;;;;;3.20;1.23;;;;;;;;;;4999482;28;20041;-48
2022/10/27 13:43:22;;;;;;;4.32;0.95;;;;;;;;;;5013011;28;20046;-48
2022/10/27 13:45:49;;;;;;;;;;;;;;;;;;5012435;28;20046;-47
2022/10/27 13:48:14;;;;;;;3.97;1.35;;;;;;;;;;5013779;28;19917;-48
2022/10/27 13:50:51;;;;;;;4.00;1.00;;;;;;;;;;5019444;28;20385;-48
2022/10/27 13:53:19;;;;;;;2.47;1.00;;;;;;;;;;4996512;28;20042;-49
2022/10/27 13:55:50;;;;;;;1.80;0.85;;;;;;;;;;5015920;28;20103;-47
2022/10/27 13:58:19;;;;;;;2.65;0.90;;;;;;;;;;5014143;28;20121;-49
2022/10/27 14:00:59;;;;;;;5.15;0.90;;;;;;;;;;5020256;28;20049;-48
2022/10/27 14:03:43;;;;;;;4.15;1.00;;;;;;;;;;5003619;28;20056;-48
2022/10/27 14:06:08;;;;;;;;;;;;;;;;;;5012865;28;20046;-49
2022/10/27 14:08:43;;;;;;;4.57;1.00;;;;;;;;;;5012961;28;19927;-48
2022/10/27 14:11:12;;;;;;;2.35;0.90;;;;;;;;;;5018373;28;20087;-48
2022/10/27 14:13:49;;;;;;;2.75;1.00;;;;;;;;;;5011264;28;20406;-48
2022/10/27 14:16:26;;;;;;;2.90;1.00;;;;;;;;;;5017488;28;20030;-47
2022/10/27 14:19:10;;;;;;;4.30;1.00;;;;;;;;;;5011599;28;20041;-47
2022/10/27 14:21:40;;;;;;;4.18;0.80;;;;;;;;;;5016959;28;20088;-49
2022/10/27 14:24:29;;;;;;;3.90;1.00;;;;;;;;;;5010530;28;20383;-47
2022/10/27 14:27:02;;;;;;;3.42;1.00;;;;;;;;;;5018684;28;20393;-48
2022/10/27 14:29:29;;;;;;;4.82;0.80;;;;;;;;;;5012219;28;20096;-47
2022/10/27 14:32:13;;;;;;;1.83;0.90;;;;;;;;;;5020083;28;20052;-48
2022/10/27 14:34:39;;;;;;;2.10;0.88;;;;;;;;;;5006660;28;20053;-48
2022/10/27 14:37:14;;;;;;;1.73;1.00;;;;;;;;;;5008256;28;20116;-48
2022/10/27 14:39:39;;;;;;;3.08;0.90;;;;;;;;;;5007706;28;20053;-48
2022/10/27 14:42:22;;;;;;;2.20;0.90;;;;;;;;;;5005688;28;20064;-46
2022/10/27 14:45:03;;;;;;;4.75;1.10;;;;;;;;;;5014601;28;20065;-47
2022/10/27 14:47:29;;;;;;;1.60;0.77;;;;;;;;;;5030266;28;20053;-47
2022/10/27 14:50:10;;;;;;;1.95;0.75;;;;;;;;;;5022109;28;20049;-48
2022/10/27 14:52:41;;;;;;;1.73;0.80;;;;;;;;;;5013623;28;20064;-47
2022/10/27 14:55:16;;;;;;;1.80;0.80;;;;;;;;;;5008332;28;20041;-49
2022/10/27 14:57:42;;;;;;;2.70;0.85;;;;;;;;;;5015139;28;20486;-51
2022/10/27 15:00:40;;;;;;;3.53;0.90;;;;;;;;;;5024548;28;20044;-46
2022/10/27 15:03:08;;;;;;;3.33;0.93;;;;;;;;;;5003817;28;20048;-52
2022/10/27 15:05:45;;;;;;;2.38;0.80;;;;;;;;;;5015037;28;20087;-49
2022/10/27 15:08:19;;;;;;;4.72;1.05;;;;;;;;;;5014410;28;20057;-50